Time;durP1;ratioP1;P1;durP2;ratioP2;P2;SDS_P1;SDS_P2;PMS_P1;PMS_P2;Temp;Humidity;BMP_temperature;BMP_pressure;BME280_temperature;BME280_humidity;BME280_pressure;Samples;Min_cycle;Max_cycle;Signal;HPM_P1;HPM_P2
2022/07/29 00:01:19;;;;;;;4.03;1.70;;;14.60;99.90;;;;;;5052878;28;20259;-60
2022/07/29 00:03:48;;;;;;;2.43;1.70;;;14.50;99.90;;;;;;5053571;28;20250;-60
2022/07/29 00:06:16;;;;;;;3.53;1.57;;;14.50;99.90;;;;;;5053710;28;20234;-60
2022/07/29 00:08:46;;;;;;;2.83;1.30;;;14.50;99.90;;;;;;5047847;28;20589;-60
2022/07/29 00:11:14;;;;;;;2.23;1.50;;;14.50;99.90;;;;;;5041109;28;20303;-60
2022/07/29 00:13:42;;;;;;;4.10;1.73;;;14.50;99.90;;;;;;5033368;28;20228;-60
2022/07/29 00:16:17;;;;;;;3.27;1.80;;;14.40;99.90;;;;;;5033640;28;20234;-60
2022/07/29 00:18:45;;;;;;;3.10;1.70;;;14.40;99.90;;;;;;5033231;28;20664;-60
2022/07/29 00:21:14;;;;;;;2.63;1.60;;;14.40;99.90;;;;;;5032743;28;20229;-60
2022/07/29 00:23:42;;;;;;;3.03;1.73;;;14.40;99.90;;;;;;5046765;28;20285;-60
2022/07/29 00:26:11;;;;;;;2.70;1.57;;;14.40;99.90;;;;;;5037311;28;20713;-60
2022/07/29 00:28:40;;;;;;;3.57;1.70;;;14.40;99.90;;;;;;5049490;28;20228;-60
2022/07/29 00:31:08;;;;;;;2.30;1.60;;;14.30;99.90;;;;;;5052656;28;20232;-60
2022/07/29 00:33:36;;;;;;;3.23;1.70;;;14.30;99.90;;;;;;5052794;28;20628;-60
2022/07/29 00:36:04;;;;;;;4.03;1.80;;;14.30;99.90;;;;;;5053234;28;20650;-60
2022/07/29 00:38:32;;;;;;;2.47;1.90;;;14.30;99.90;;;;;;5052801;28;20215;-60
2022/07/29 00:41:01;;;;;;;2.50;1.97;;;14.30;99.90;;;;;;5044281;28;20655;-60
2022/07/29 00:43:30;;;;;;;2.73;1.97;;;14.20;99.90;;;;;;5052701;28;20288;-60
2022/07/29 00:45:58;;;;;;;5.13;1.73;;;14.20;99.90;;;;;;5052918;28;20220;-60
2022/07/29 00:48:26;;;;;;;2.47;1.67;;;14.20;99.90;;;;;;5052772;28;20222;-59
2022/07/29 00:50:55;;;;;;;5.70;1.80;;;14.20;99.90;;;;;;5041251;28;20232;-60
2022/07/29 00:53:24;;;;;;;2.83;1.70;;;14.20;99.90;;;;;;5043980;28;20255;-60
2022/07/29 00:55:55;;;;;;;2.90;1.70;;;14.20;99.90;;;;;;5044689;28;20718;-60
2022/07/29 00:58:23;;;;;;;3.27;1.67;;;14.10;99.90;;;;;;5052877;28;20259;-60
2022/07/29 01:00:53;;;;;;;2.43;1.90;;;14.00;99.90;;;;;;5036507;28;20704;-60
2022/07/29 01:03:21;;;;;;;2.83;1.80;;;14.00;99.90;;;;;;5032865;28;20241;-60
2022/07/29 01:05:49;;;;;;;2.00;1.63;;;14.00;99.90;;;;;;5032600;28;20269;-60
2022/07/29 01:08:21;;;;;;;1.97;1.67;;;14.00;99.90;;;;;;5039537;28;20254;-60
2022/07/29 01:10:50;;;;;;;2.30;1.83;;;13.90;99.90;;;;;;5048530;28;20224;-60
2022/07/29 01:13:18;;;;;;;5.03;2.27;;;13.90;99.90;;;;;;5056953;28;20323;-60
2022/07/29 01:15:52;;;;;;;2.33;1.60;;;13.90;99.90;;;;;;5056929;28;20235;-60
2022/07/29 01:18:29;;;;;;;3.63;1.67;;;13.90;99.90;;;;;;5056809;28;20297;-60
2022/07/29 01:21:26;;;;;;;3.70;1.80;;;13.90;99.90;;;;;;5044904;28;20235;-60
2022/07/29 01:24:20;;;;;;;2.30;1.70;;;13.90;99.90;;;;;;5050376;28;20772;-60
2022/07/29 01:26:53;;;;;;;2.83;1.77;;;13.80;99.90;;;;;;5053311;28;20228;-60
2022/07/29 01:29:29;;;;;;;3.10;2.00;;;13.80;99.90;;;;;;5053800;28;20228;-60
2022/07/29 01:32:10;;;;;;;4.00;1.97;;;13.80;99.90;;;;;;5036057;28;20235;-60
2022/07/29 01:34:59;;;;;;;2.60;1.97;;;13.70;99.90;;;;;;5036328;28;20310;-60
2022/07/29 01:37:33;;;;;;;4.13;1.90;;;13.70;99.90;;;;;;5035932;28;20278;-60
2022/07/29 01:40:04;;;;;;;3.27;2.03;;;13.60;99.90;;;;;;5046717;28;20232;-60
2022/07/29 01:42:37;;;;;;;2.70;1.83;;;13.60;99.90;;;;;;5055677;28;20274;-60
2022/07/29 01:45:13;;;;;;;4.37;2.07;;;13.60;99.90;;;;;;5047660;28;20224;-60
2022/07/29 01:47:47;;;;;;;4.50;1.90;;;13.60;99.90;;;;;;5036234;28;20330;-60
2022/07/29 01:50:18;;;;;;;1.60;1.30;;;13.60;99.90;;;;;;5035971;28;20248;-60
2022/07/29 01:52:53;;;;;;;3.30;1.40;;;13.60;99.90;;;;;;5042178;28;20237;-60
2022/07/29 01:55:23;;;;;;;4.20;2.00;;;13.60;99.90;;;;;;5047589;28;20235;-60
2022/07/29 01:57:52;;;;;;;1.87;1.60;;;13.60;99.90;;;;;;5056135;28;20646;-60
2022/07/29 02:00:22;;;;;;;3.13;1.57;;;13.60;99.90;;;;;;5045187;28;20224;-60
2022/07/29 02:02:53;;;;;;;4.03;1.60;;;13.60;99.90;;;;;;5036077;28;20313;-60
2022/07/29 02:05:23;;;;;;;3.83;1.73;;;13.60;99.90;;;;;;5035478;28;20307;-60
2022/07/29 02:07:53;;;;;;;1.70;1.57;;;13.60;99.90;;;;;;5036816;28;20307;-60
2022/07/29 02:10:24;;;;;;;2.33;1.40;;;13.60;99.90;;;;;;5047227;28;20230;-60
2022/07/29 02:12:55;;;;;;;3.77;1.77;;;13.70;99.90;;;;;;5055854;28;20269;-60
2022/07/29 02:15:27;;;;;;;3.47;1.77;;;13.70;99.90;;;;;;5055585;28;20273;-60
2022/07/29 02:17:58;;;;;;;4.40;1.87;;;13.70;99.90;;;;;;5055764;28;20639;-60
2022/07/29 02:20:27;;;;;;;3.57;1.47;;;13.70;99.90;;;;;;5047243;28;20228;-60
2022/07/29 02:22:56;;;;;;;2.57;1.60;;;13.70;99.90;;;;;;5042830;28;20270;-60
2022/07/29 02:25:25;;;;;;;3.90;1.80;;;13.70;99.90;;;;;;5047210;28;20373;-60
2022/07/29 02:28:06;;;;;;;3.93;1.73;;;13.70;99.90;;;;;;5055541;28;20283;-60
2022/07/29 02:30:39;;;;;;;2.93;1.90;;;13.70;99.90;;;;;;5039760;28;20262;-60
2022/07/29 02:33:11;;;;;;;3.03;1.60;;;13.80;99.90;;;;;;5035421;28;20303;-60
2022/07/29 02:35:41;;;;;;;3.87;2.00;;;13.70;99.90;;;;;;5037937;28;20714;-60
2022/07/29 02:41:00;;;;;;;4.27;1.80;;;13.60;99.90;;;;;;5047026;28;20690;-60
2022/07/29 02:43:31;;;;;;;2.47;1.97;;;13.70;99.90;;;;;;5054942;28;20677;-60
2022/07/29 02:46:03;;;;;;;2.10;1.70;;;13.80;99.90;;;;;;5055229;28;20246;-60
2022/07/29 02:48:44;;;;;;;2.93;2.13;;;13.80;99.90;;;;;;5054908;28;20688;-60
2022/07/29 02:51:19;;;;;;;2.57;1.80;;;13.80;99.90;;;;;;5041168;28;20252;-61
2022/07/29 02:54:10;;;;;;;2.27;1.80;;;13.80;99.90;;;;;;5042912;28;20240;-60
2022/07/29 02:56:40;;;;;;;4.83;2.30;;;13.80;99.90;;;;;;5050250;28;20289;-60
2022/07/29 02:59:15;;;;;;;3.20;1.83;;;13.70;99.90;;;;;;5050769;28;20238;-60
2022/07/29 03:01:45;;;;;;;2.73;1.90;;;13.70;99.90;;;;;;5034176;28;20323;-60
2022/07/29 03:04:15;;;;;;;3.03;1.83;;;13.70;99.90;;;;;;5034583;28;20252;-60
2022/07/29 03:06:45;;;;;;;2.93;2.03;;;13.70;99.90;;;;;;5034419;28;20231;-60
2022/07/29 03:09:14;;;;;;;3.27;1.90;;;13.70;99.90;;;;;;5046716;28;20735;-60
2022/07/29 03:11:44;;;;;;;3.20;1.97;;;13.70;99.90;;;;;;5051033;28;20223;-60
2022/07/29 03:14:19;;;;;;;3.57;2.20;;;13.70;99.90;;;;;;5054733;28;20223;-60
2022/07/29 03:16:50;;;;;;;2.77;2.00;;;13.70;99.90;;;;;;5054511;28;20230;-60
2022/07/29 03:19:19;;;;;;;3.87;1.87;;;13.70;99.90;;;;;;5054691;28;20328;-61
2022/07/29 03:21:48;;;;;;;4.70;2.10;;;13.70;99.90;;;;;;5035471;28;20327;-60
2022/07/29 03:24:29;;;;;;;3.13;2.10;;;13.80;99.90;;;;;;5042667;28;20263;-61
2022/07/29 03:26:58;;;;;;;7.13;2.30;;;13.90;99.90;;;;;;5052546;28;20237;-60
2022/07/29 03:29:27;;;;;;;5.90;2.10;;;13.80;99.90;;;;;;5046323;28;20252;-60
2022/07/29 03:32:03;;;;;;;3.47;2.13;;;13.80;99.90;;;;;;5033691;28;20700;-60
2022/07/29 03:34:37;;;;;;;6.27;1.93;;;13.80;99.90;;;;;;5033824;28;20226;-60
2022/07/29 03:37:06;;;;;;;3.63;2.13;;;13.80;99.90;;;;;;5034164;28;20232;-60
2022/07/29 03:39:39;;;;;;;3.70;2.17;;;13.80;99.90;;;;;;5046075;28;20681;-60
2022/07/29 03:42:09;;;;;;;2.27;1.80;;;13.80;99.90;;;;;;5053417;28;20315;-60
2022/07/29 03:44:39;;;;;;;3.20;2.10;;;13.80;99.90;;;;;;5053868;28;20318;-60
2022/07/29 03:47:10;;;;;;;4.37;2.50;;;13.80;99.90;;;;;;5054479;28;20710;-60
2022/07/29 03:49:41;;;;;;;3.73;2.27;;;13.70;99.90;;;;;;5053127;28;20326;-60
2022/07/29 03:52:09;;;;;;;2.93;2.33;;;13.70;99.90;;;;;;5033600;28;20295;-60
2022/07/29 03:54:37;;;;;;;4.27;2.30;;;13.70;99.90;;;;;;5045685;28;20252;-60
2022/07/29 03:57:07;;;;;;;3.00;2.20;;;13.80;99.90;;;;;;5033997;28;20243;-60
2022/07/29 03:59:37;;;;;;;3.77;2.10;;;13.80;99.90;;;;;;5033520;28;20255;-60
2022/07/29 04:02:09;;;;;;;2.67;2.30;;;13.80;99.90;;;;;;5032997;28;20243;-60
2022/07/29 04:04:38;;;;;;;4.13;2.30;;;13.70;99.90;;;;;;5033338;28;20283;-60
2022/07/29 04:07:07;;;;;;;4.20;2.10;;;13.70;99.90;;;;;;5018773;28;20323;-60
2022/07/29 04:09:35;;;;;;;2.53;2.07;;;13.70;99.90;;;;;;5044640;28;20232;-60
2022/07/29 04:12:03;;;;;;;5.73;2.30;;;13.60;99.90;;;;;;5052566;28;20313;-60
2022/07/29 04:14:32;;;;;;;3.90;2.30;;;13.70;99.90;;;;;;5035773;28;20263;-60
2022/07/29 04:17:01;;;;;;;3.10;2.40;;;13.70;99.90;;;;;;5033471;28;20668;-60
2022/07/29 04:19:29;;;;;;;2.43;2.20;;;13.70;99.90;;;;;;5033227;28;20232;-60
2022/07/29 04:21:59;;;;;;;4.50;2.37;;;13.70;99.90;;;;;;5033599;28;20320;-60
2022/07/29 04:24:27;;;;;;;2.50;2.07;;;13.70;99.90;;;;;;5039161;28;20274;-59
2022/07/29 04:26:55;;;;;;;3.23;2.00;;;13.80;99.90;;;;;;5034989;28;20232;-60
2022/07/29 04:29:23;;;;;;;13.47;3.93;;;13.80;99.90;;;;;;5033464;28;20323;-60
2022/07/29 04:31:52;;;;;;;7.03;2.77;;;13.90;99.90;;;;;;5032744;28;20244;-60
2022/07/29 04:34:20;;;;;;;4.83;2.37;;;13.90;99.90;;;;;;5035878;28;20221;-60
2022/07/29 04:36:48;;;;;;;3.30;2.20;;;13.90;99.90;;;;;;5013355;28;20791;-60
2022/07/29 04:39:18;;;;;;;4.87;2.53;;;13.90;99.90;;;;;;5041566;28;20228;-60
2022/07/29 04:41:51;;;;;;;2.73;2.23;;;14.00;99.90;;;;;;5050608;28;20276;-60
2022/07/29 04:44:23;;;;;;;4.90;2.13;;;14.00;99.90;;;;;;5052938;28;20294;-60
2022/07/29 04:46:57;;;;;;;4.30;2.40;;;14.10;99.90;;;;;;5053180;28;20231;-60
2022/07/29 04:49:25;;;;;;;4.63;2.63;;;14.10;99.90;;;;;;5052993;28;20297;-60
2022/07/29 04:51:54;;;;;;;5.80;2.70;;;14.10;99.90;;;;;;5052782;28;20246;-60
2022/07/29 04:54:23;;;;;;;4.63;2.40;;;14.20;99.90;;;;;;5037751;28;20242;-60
2022/07/29 04:56:53;;;;;;;3.10;2.53;;;14.30;99.90;;;;;;5023225;28;20316;-61
2022/07/29 04:59:21;;;;;;;4.23;2.33;;;14.30;99.90;;;;;;5013122;28;20232;-61
2022/07/29 05:01:49;;;;;;;5.47;2.23;;;14.40;99.90;;;;;;5018451;28;20236;-61
2022/07/29 05:04:17;;;;;;;4.33;2.60;;;14.50;99.90;;;;;;5032485;28;20224;-61
2022/07/29 05:06:47;;;;;;;2.50;2.23;;;14.60;99.90;;;;;;5032681;28;20227;-61
2022/07/29 05:09:15;;;;;;;4.13;2.33;;;14.70;99.90;;;;;;5044840;28;20763;-61
2022/07/29 05:11:44;;;;;;;4.10;2.20;;;14.80;99.90;;;;;;5049164;28;20258;-61
2022/07/29 05:14:13;;;;;;;4.73;2.70;;;14.90;99.90;;;;;;5013577;28;20669;-61
2022/07/29 05:16:41;;;;;;;4.77;2.60;;;15.00;99.90;;;;;;5013035;28;20328;-61
2022/07/29 05:19:10;;;;;;;3.67;2.40;;;15.10;99.90;;;;;;5013059;28;20296;-61
2022/07/29 05:21:41;;;;;;;4.30;2.50;;;15.10;99.90;;;;;;5013071;28;20273;-61
2022/07/29 05:24:09;;;;;;;3.60;2.30;;;15.10;99.90;;;;;;5043811;28;20679;-62
2022/07/29 05:26:38;;;;;;;3.73;2.40;;;15.10;99.90;;;;;;5037219;28;20364;-62
2022/07/29 05:29:08;;;;;;;4.43;2.70;;;15.20;99.90;;;;;;5032914;28;20224;-62
2022/07/29 05:31:57;;;;;;;4.43;2.80;;;15.30;99.90;;;;;;5031228;28;20237;-62
2022/07/29 05:34:25;;;;;;;3.83;2.40;;;15.20;99.90;;;;;;5027520;28;20228;-61
2022/07/29 05:36:53;;;;;;;4.63;2.30;;;15.20;99.90;;;;;;5024020;28;20261;-62
2022/07/29 05:39:21;;;;;;;4.73;2.30;;;15.30;99.90;;;;;;5036698;28;20236;-62
2022/07/29 05:42:10;;;;;;;4.93;2.23;;;15.30;99.90;;;;;;5023628;28;20708;-62
2022/07/29 05:44:40;;;;;;;4.43;2.37;;;15.40;99.90;;;;;;5016450;28;20291;-62
2022/07/29 05:47:08;;;;;;;4.37;2.67;;;15.40;99.90;;;;;;5029063;28;20225;-62
2022/07/29 05:49:36;;;;;;;5.07;2.50;;;15.50;99.90;;;;;;5032206;28;20235;-62
2022/07/29 05:52:05;;;;;;;3.67;2.37;;;15.50;99.90;;;;;;5032791;28;20237;-62
2022/07/29 05:54:33;;;;;;;4.37;2.43;;;15.60;99.90;;;;;;5045486;28;20327;-62
2022/07/29 05:57:01;;;;;;;3.40;2.37;;;15.70;99.90;;;;;;5055116;28;20605;-62
2022/07/29 05:59:30;;;;;;;5.67;2.90;;;15.70;99.90;;;;;;5044713;28;20315;-62
2022/07/29 06:01:59;;;;;;;5.73;2.50;;;15.80;99.90;;;;;;5035783;28;20236;-62
2022/07/29 06:04:27;;;;;;;3.23;2.47;;;16.00;99.90;;;;;;5035372;28;20243;-62
2022/07/29 06:06:56;;;;;;;4.57;2.43;;;16.00;99.90;;;;;;5035660;28;20634;-62
2022/07/29 06:09:24;;;;;;;3.00;2.40;;;16.10;99.90;;;;;;5046206;28;20243;-62
2022/07/29 06:11:52;;;;;;;4.80;2.97;;;16.10;99.90;;;;;;5037892;28;20320;-62
2022/07/29 06:14:20;;;;;;;4.43;2.43;;;16.00;99.90;;;;;;5035337;28;20233;-62
2022/07/29 06:16:48;;;;;;;4.90;2.90;;;16.00;99.90;;;;;;5033630;28;20228;-62
2022/07/29 06:19:18;;;;;;;6.20;3.00;;;16.00;99.90;;;;;;5035538;28;20276;-62
2022/07/29 06:21:47;;;;;;;6.83;2.43;;;16.10;99.90;;;;;;5035225;28;20224;-62
2022/07/29 06:24:16;;;;;;;4.70;2.57;;;16.20;99.90;;;;;;5049801;28;20228;-62
2022/07/29 06:26:45;;;;;;;7.80;3.10;;;16.20;99.90;;;;;;5042737;28;20278;-62
2022/07/29 06:29:13;;;;;;;5.17;2.73;;;16.20;99.90;;;;;;5035561;28;20256;-62
2022/07/29 06:31:41;;;;;;;6.80;2.83;;;16.30;99.90;;;;;;5032140;28;20262;-62
2022/07/29 06:34:09;;;;;;;4.30;2.50;;;16.30;99.90;;;;;;5035535;28;20228;-62
2022/07/29 06:36:39;;;;;;;4.13;2.60;;;16.30;99.90;;;;;;5034853;28;20294;-63
2022/07/29 06:39:08;;;;;;;4.40;2.57;;;16.30;99.90;;;;;;5047907;28;20286;-62
2022/07/29 06:41:38;;;;;;;6.30;2.80;;;16.40;99.90;;;;;;5043315;28;20310;-62
2022/07/29 06:44:10;;;;;;;3.83;2.70;;;16.50;99.90;;;;;;5027242;28;20263;-62
2022/07/29 06:46:38;;;;;;;3.43;2.57;;;16.60;99.90;;;;;;5034917;28;20271;-62
2022/07/29 06:49:06;;;;;;;4.80;2.30;;;16.70;99.90;;;;;;5035347;28;20315;-62
2022/07/29 06:51:34;;;;;;;6.20;2.90;;;17.00;99.90;;;;;;5034759;28;20236;-63
2022/07/29 06:54:05;;;;;;;4.47;2.33;;;17.10;99.90;;;;;;5040294;28;20276;-63
2022/07/29 06:56:35;;;;;;;7.80;2.47;;;17.60;99.90;;;;;;5021843;28;20728;-63
2022/07/29 06:59:07;;;;;;;6.20;2.57;;;18.20;99.90;;;;;;5046956;28;20225;-63
2022/07/29 07:01:36;;;;;;;6.03;2.60;;;18.60;99.90;;;;;;5034122;28;20224;-63
2022/07/29 07:04:04;;;;;;;5.13;2.90;;;18.80;99.90;;;;;;5034972;28;20640;-63
2022/07/29 07:06:33;;;;;;;5.97;2.60;;;18.90;99.90;;;;;;5034340;28;20650;-63
2022/07/29 07:09:01;;;;;;;4.40;2.50;;;19.00;99.90;;;;;;5043039;28;20250;-63
2022/07/29 07:11:30;;;;;;;5.83;2.70;;;19.00;99.90;;;;;;5048983;28;20256;-63
2022/07/29 07:13:58;;;;;;;5.60;2.80;;;18.90;99.90;;;;;;5054753;28;20290;-64
2022/07/29 07:16:31;;;;;;;4.43;2.73;;;18.90;99.90;;;;;;5050130;28;20222;-64
2022/07/29 07:19:02;;;;;;;5.87;2.70;;;19.20;99.90;;;;;;5032823;28;20222;-64
2022/07/29 07:21:31;;;;;;;5.40;2.30;;;19.50;99.90;;;;;;5033783;28;20318;-64
2022/07/29 07:23:59;;;;;;;4.27;2.50;;;19.50;99.90;;;;;;5045899;28;20277;-64
2022/07/29 07:26:28;;;;;;;4.27;2.33;;;19.60;99.90;;;;;;5039450;28;20296;-63
2022/07/29 07:28:57;;;;;;;6.83;2.90;;;19.60;99.90;;;;;;5034154;28;20254;-64
2022/07/29 07:31:25;;;;;;;4.30;2.60;;;19.80;99.90;;;;;;5033800;28;20242;-64
2022/07/29 07:33:54;;;;;;;7.17;2.97;;;19.80;99.90;;;;;;5028724;28;20332;-64
2022/07/29 07:36:22;;;;;;;4.17;2.63;;;19.60;99.90;;;;;;5014451;28;20220;-64
2022/07/29 07:38:50;;;;;;;8.37;3.10;;;19.50;99.90;;;;;;5035145;28;20322;-64
2022/07/29 07:41:18;;;;;;;5.23;3.20;;;19.40;99.90;;;;;;5047107;28;20238;-64
2022/07/29 07:43:46;;;;;;;3.90;2.80;;;19.20;99.90;;;;;;5054074;28;20281;-64
2022/07/29 07:46:16;;;;;;;5.30;2.87;;;19.10;99.90;;;;;;5053810;28;20336;-64
2022/07/29 07:48:45;;;;;;;5.87;2.90;;;19.00;99.90;;;;;;5053817;28;20255;-64
2022/07/29 07:51:13;;;;;;;4.57;2.90;;;19.10;99.90;;;;;;5054229;28;20567;-64
2022/07/29 07:53:41;;;;;;;4.40;2.67;;;19.00;99.90;;;;;;5048738;28;20334;-64
2022/07/29 07:56:09;;;;;;;5.30;2.60;;;18.90;99.90;;;;;;5025671;28;20246;-64
2022/07/29 07:58:39;;;;;;;5.03;2.70;;;19.20;99.90;;;;;;5033513;28;20230;-64
2022/07/29 08:01:08;;;;;;;5.30;2.80;;;19.40;99.90;;;;;;5032982;28;20238;-64
2022/07/29 08:03:38;;;;;;;5.00;2.60;;;19.60;99.90;;;;;;5033485;28;20236;-64
2022/07/29 08:06:06;;;;;;;5.77;3.30;;;19.60;99.90;;;;;;5033580;28;20284;-64
2022/07/29 08:08:35;;;;;;;7.60;2.90;;;19.70;99.90;;;;;;5040322;28;20309;-64
2022/07/29 08:11:03;;;;;;;4.97;2.50;;;19.90;99.90;;;;;;5045359;28;20781;-64
2022/07/29 08:13:38;;;;;;;6.20;2.83;;;20.00;99.90;;;;;;5053200;28;20320;-64
2022/07/29 08:16:12;;;;;;;7.40;3.20;;;20.10;99.90;;;;;;5053257;28;20239;-64
2022/07/29 08:18:43;;;;;;;4.90;2.90;;;20.30;99.90;;;;;;5052847;28;20234;-64
2022/07/29 08:21:11;;;;;;;3.63;2.57;;;20.40;99.90;;;;;;5053604;28;20228;-64
2022/07/29 08:23:48;;;;;;;4.97;2.60;;;20.40;99.90;;;;;;5040573;28;20236;-64
2022/07/29 08:26:26;;;;;;;4.57;2.73;;;20.30;99.90;;;;;;5041546;28;20321;-64
2022/07/29 08:28:54;;;;;;;4.87;2.70;;;20.60;99.90;;;;;;5053278;28;20731;-64
2022/07/29 08:31:23;;;;;;;7.03;2.90;;;20.50;99.90;;;;;;5052810;28;20239;-64
2022/07/29 08:33:52;;;;;;;4.63;2.77;;;20.80;99.90;;;;;;5036580;28;20232;-64
2022/07/29 08:36:21;;;;;;;5.90;2.83;;;20.80;99.90;;;;;;5033565;28;20224;-64
2022/07/29 08:38:50;;;;;;;5.03;2.60;;;20.90;99.90;;;;;;5045118;28;20624;-64
2022/07/29 08:41:19;;;;;;;4.67;2.50;;;20.80;99.90;;;;;;5046371;28;20265;-64
2022/07/29 08:43:48;;;;;;;9.07;3.00;;;20.70;99.90;;;;;;5053064;28;20323;-64
2022/07/29 08:46:16;;;;;;;6.83;2.80;;;20.60;99.90;;;;;;5052773;28;20274;-64
2022/07/29 08:48:45;;;;;;;6.13;2.80;;;20.50;99.90;;;;;;5049572;28;20235;-64
2022/07/29 08:51:17;;;;;;;4.77;2.80;;;20.60;99.90;;;;;;5053167;28;20240;-64
2022/07/29 08:53:47;;;;;;;4.50;2.77;;;20.70;99.90;;;;;;5045261;28;20338;-64
2022/07/29 08:56:17;;;;;;;3.63;2.70;;;20.70;99.90;;;;;;5040397;28;20263;-64
2022/07/29 08:58:46;;;;;;;5.30;2.73;;;20.60;99.90;;;;;;5033121;28;20239;-64
2022/07/29 09:01:23;;;;;;;7.07;3.10;;;20.60;99.90;;;;;;5032127;28;20251;-64
2022/07/29 09:04:06;;;;;;;7.93;2.97;;;20.40;99.90;;;;;;5033020;28;20235;-64
2022/07/29 09:06:40;;;;;;;5.20;3.10;;;20.40;99.90;;;;;;5032308;28;20239;-64
2022/07/29 09:09:09;;;;;;;6.57;2.90;;;20.30;99.90;;;;;;5044695;28;20228;-64
2022/07/29 09:11:37;;;;;;;7.23;2.73;;;20.30;99.90;;;;;;5048460;28;20241;-64
2022/07/29 09:14:05;;;;;;;4.07;2.80;;;20.40;99.90;;;;;;5053051;28;20493;-64
2022/07/29 09:16:53;;;;;;;6.77;3.10;;;20.40;99.90;;;;;;5051290;28;20251;-62
2022/07/29 09:19:28;;;;;;;6.37;2.70;;;20.50;99.90;;;;;;5039300;28;20238;-64
2022/07/29 09:21:59;;;;;;;4.83;3.00;;;20.60;99.90;;;;;;5030084;28;20707;-64
2022/07/29 09:24:44;;;;;;;6.13;2.63;;;20.50;99.90;;;;;;5027473;28;20238;-64
2022/07/29 09:27:22;;;;;;;6.00;2.80;;;20.60;99.90;;;;;;5031955;28;20223;-64
2022/07/29 09:30:00;;;;;;;6.40;3.00;;;20.60;99.90;;;;;;5034901;28;20223;-64
2022/07/29 09:32:29;;;;;;;5.77;2.77;;;20.70;99.90;;;;;;5024599;28;20753;-64
2022/07/29 09:35:17;;;;;;;5.27;2.60;;;20.80;99.90;;;;;;5027742;28;21449;-63
2022/07/29 09:37:47;;;;;;;6.00;2.90;;;20.80;99.90;;;;;;5024179;28;20228;-63
2022/07/29 09:40:18;;;;;;;6.47;2.57;;;21.00;99.90;;;;;;5024863;28;20260;-64
2022/07/29 09:42:47;;;;;;;5.20;2.60;;;21.00;99.90;;;;;;5023704;28;20603;-63
2022/07/29 09:45:28;;;;;;;6.03;2.93;;;21.10;99.90;;;;;;5026686;28;20715;-64
2022/07/29 09:48:00;;;;;;;7.23;2.70;;;21.30;99.90;;;;;;5024742;28;20235;-64
2022/07/29 09:50:39;;;;;;;6.93;2.87;;;21.40;99.90;;;;;;5025111;28;20234;-64
2022/07/29 09:53:10;;;;;;;6.63;2.93;;;21.70;99.90;;;;;;5025575;28;21367;-64
2022/07/29 09:55:49;;;;;;;4.03;2.53;;;21.90;99.90;;;;;;5025179;28;20785;-64
2022/07/29 09:58:20;;;;;;;5.57;2.87;;;22.00;99.90;;;;;;5026418;28;20232;-64
2022/07/29 10:00:52;;;;;;;7.97;3.00;;;22.00;99.90;;;;;;5024799;28;20350;-63
2022/07/29 10:03:20;;;;;;;5.40;2.67;;;22.10;99.90;;;;;;5026227;28;20243;-64
2022/07/29 10:06:06;;;;;;;5.90;2.60;;;22.20;99.90;;;;;;5026151;28;21620;-64
2022/07/29 10:08:36;;;;;;;5.73;2.80;;;22.40;99.90;;;;;;5023796;28;20256;-64
2022/07/29 10:11:12;;;;;;;5.37;2.87;;;22.40;99.90;;;;;;5022491;28;20703;-64
2022/07/29 10:13:41;;;;;;;5.00;2.63;;;22.50;99.90;;;;;;5024869;28;20252;-64
2022/07/29 10:16:11;;;;;;;5.63;2.83;;;22.70;99.90;;;;;;5025106;28;20303;-63
2022/07/29 10:18:42;;;;;;;4.73;2.50;;;22.80;99.90;;;;;;5026276;28;20283;-63
2022/07/29 10:21:11;;;;;;;4.23;2.40;;;22.90;99.90;;;;;;5022326;28;20231;-64
2022/07/29 10:24:02;;;;;;;4.83;3.10;;;22.90;99.90;;;;;;5024767;28;20242;-63
2022/07/29 10:26:31;;;;;;;6.63;2.70;;;22.90;99.90;;;;;;5024997;28;20332;-64
2022/07/29 10:28:59;;;;;;;5.90;2.70;;;22.80;99.90;;;;;;5024900;28;20243;-65
2022/07/29 10:31:36;;;;;;;4.70;2.40;;;22.80;99.90;;;;;;5023034;28;20235;-64
2022/07/29 10:34:14;;;;;;;6.33;3.87;;;22.90;99.90;;;;;;5023520;28;20318;-64
2022/07/29 10:36:54;;;;;;;5.83;2.50;;;23.00;99.90;;;;;;5027145;28;20228;-63
2022/07/29 10:39:38;;;;;;;5.90;2.73;;;23.00;99.90;;;;;;5024329;28;20670;-63
2022/07/29 10:42:18;;;;;;;5.77;2.77;;;23.20;99.90;;;;;;5021983;28;20229;-65
2022/07/29 10:44:47;;;;;;;5.93;2.60;;;23.60;99.90;;;;;;5025074;28;20331;-65
2022/07/29 10:47:23;;;;;;;5.13;2.63;;;23.90;99.90;;;;;;5024483;28;20312;-64
2022/07/29 10:49:59;;;;;;;7.67;2.77;;;24.20;99.90;;;;;;5025574;28;20364;-64
2022/07/29 10:52:57;;;;;;;5.80;2.90;;;24.20;99.90;;;;;;5023717;28;20229;-64
2022/07/29 10:55:34;;;;;;;4.97;2.50;;;24.40;99.90;;;;;;5025810;28;20223;-64
2022/07/29 10:58:14;;;;;;;4.37;2.63;;;24.70;99.90;;;;;;5025589;28;20739;-64
2022/07/29 11:00:46;;;;;;;5.23;2.53;;;24.70;99.90;;;;;;5023569;28;20613;-64
2022/07/29 11:03:46;;;;;;;4.93;2.67;;;25.20;99.90;;;;;;5024134;28;20229;-65
2022/07/29 11:06:18;;;;;;;3.20;2.60;;;25.70;99.90;;;;;;5024161;28;20232;-65
2022/07/29 11:09:17;;;;;;;8.17;2.90;;;25.90;99.90;;;;;;5024620;28;20716;-63
2022/07/29 11:11:48;;;;;;;5.00;2.70;;;26.30;99.90;;;;;;5022125;28;20728;-65
2022/07/29 11:14:19;;;;;;;5.47;2.33;;;26.30;99.90;;;;;;5030165;28;20238;-66
2022/07/29 11:17:04;;;;;;;5.57;2.30;;;26.10;99.90;;;;;;5029483;28;20287;-67
2022/07/29 11:19:52;;;;;;;3.97;2.60;;;26.10;99.90;;;;;;5031096;28;20235;-65
2022/07/29 11:22:35;;;;;;;3.40;2.20;;;26.10;99.90;;;;;;5029442;28;20261;-64
2022/07/29 11:25:17;;;;;;;4.67;2.10;;;26.30;99.90;;;;;;5031111;28;20243;-67
2022/07/29 11:27:46;;;;;;;4.60;1.97;;;26.20;99.90;;;;;;5030951;28;20230;-67
2022/07/29 11:30:15;;;;;;;5.37;2.10;;;26.40;99.90;;;;;;5030929;28;20231;-67
2022/07/29 11:32:46;;;;;;;4.47;2.30;;;26.20;99.90;;;;;;5027978;28;20243;-64
2022/07/29 11:35:20;;;;;;;3.97;2.10;;;26.10;99.90;;;;;;5030656;28;20624;-64
2022/07/29 11:38:27;;;;;;;3.70;2.03;;;25.60;99.90;;;;;;5031270;28;20230;-64
2022/07/29 11:41:21;;;;;;;4.93;1.90;;;25.50;99.90;;;;;;5026427;28;20242;-69
2022/07/29 11:43:53;;;;;;;8.47;2.27;;;25.70;99.90;;;;;;5045234;28;20234;-64
2022/07/29 11:46:48;;;;;;;3.80;1.73;;;25.90;99.90;;;;;;5033079;28;20819;-64
2022/07/29 11:49:21;;;;;;;5.23;2.10;;;26.50;99.90;;;;;;5038288;28;20243;-65
2022/07/29 11:52:02;;;;;;;5.33;1.47;;;27.30;99.90;;;;;;5035150;28;20308;-68
2022/07/29 11:54:33;;;;;;;2.23;1.60;;;27.20;99.90;;;;;;5042776;28;20593;-65
2022/07/29 11:57:22;;;;;;;5.97;1.70;;;27.40;99.90;;;;;;5038936;28;20224;-66
2022/07/29 12:00:09;;;;;;;3.17;1.70;;;27.50;99.90;;;;;;5037080;28;20848;-65
2022/07/29 12:02:42;;;;;;;3.30;1.80;;;27.60;99.90;;;;;;5039443;28;20601;-65
2022/07/29 12:05:16;;;;;;;6.43;1.83;;;27.10;99.90;;;;;;5038211;28;20234;-66
2022/07/29 12:08:12;;;;;;;3.93;1.63;;;26.60;99.90;;;;;;5039123;28;20258;-67
2022/07/29 12:10:44;;;;;;;4.60;1.87;;;26.50;99.90;;;;;;5037320;28;20241;-67
2022/07/29 12:13:12;;;;;;;2.27;1.37;;;26.60;99.90;;;;;;5042046;28;20227;-67
2022/07/29 12:15:43;;;;;;;5.33;1.70;;;26.80;99.90;;;;;;5040774;28;20237;-64
2022/07/29 12:18:19;;;;;;;5.73;1.67;;;26.30;99.90;;;;;;5038146;28;20277;-65
2022/07/29 12:20:58;;;;;;;6.83;1.93;;;26.10;99.90;;;;;;5036965;28;20650;-64
2022/07/29 12:23:30;;;;;;;3.90;1.67;;;25.70;99.90;;;;;;5041223;28;20238;-67
2022/07/29 12:26:05;;;;;;;3.30;1.67;;;25.60;99.90;;;;;;5040003;28;20289;-65
2022/07/29 12:28:39;;;;;;;2.97;1.47;;;25.80;99.90;;;;;;5041446;28;20225;-65
2022/07/29 12:31:14;;;;;;;3.83;1.63;;;25.90;99.90;;;;;;5033693;28;20236;-65
2022/07/29 12:34:03;;;;;;;3.10;1.53;;;26.10;99.90;;;;;;5030867;28;20590;-64
2022/07/29 12:36:31;;;;;;;4.10;1.90;;;26.40;99.90;;;;;;5027259;28;20235;-65
2022/07/29 12:38:59;;;;;;;3.67;1.90;;;25.90;99.90;;;;;;5030014;28;20238;-66
2022/07/29 12:41:29;;;;;;;4.40;1.57;;;25.80;99.90;;;;;;5034363;28;20318;-65
2022/07/29 12:43:57;;;;;;;3.80;1.73;;;25.90;99.90;;;;;;5034038;28;20702;-66
2022/07/29 12:46:26;;;;;;;3.63;1.60;;;26.10;99.90;;;;;;5034345;28;20247;-64
2022/07/29 12:48:56;;;;;;;3.60;1.50;;;26.30;99.90;;;;;;5033273;28;20252;-65
2022/07/29 12:51:30;;;;;;;4.40;1.53;;;26.20;99.90;;;;;;5033200;28;20230;-64
2022/07/29 12:54:07;;;;;;;4.13;1.70;;;26.20;99.90;;;;;;5047241;28;20319;-65
2022/07/29 12:56:36;;;;;;;2.80;1.60;;;26.20;99.90;;;;;;5034517;28;20691;-67
2022/07/29 12:59:14;;;;;;;2.80;1.70;;;25.90;99.90;;;;;;5033349;28;20648;-66
2022/07/29 13:01:44;;;;;;;1.70;1.50;;;25.50;99.90;;;;;;5032595;28;20325;-66
2022/07/29 13:04:25;;;;;;;2.90;1.80;;;25.40;99.90;;;;;;5034358;28;20273;-66
2022/07/29 13:07:00;;;;;;;5.47;1.63;;;25.60;99.90;;;;;;5037147;28;20230;-65
2022/07/29 13:09:38;;;;;;;3.57;1.53;;;25.70;99.90;;;;;;5044189;28;20589;-65
2022/07/29 13:12:09;;;;;;;6.37;1.73;;;25.70;99.90;;;;;;5037689;28;20594;-65
2022/07/29 13:14:40;;;;;;;4.80;1.43;;;25.90;99.90;;;;;;5037188;28;20230;-65
2022/07/29 13:17:10;;;;;;;3.57;1.40;;;26.00;99.90;;;;;;5036966;28;20635;-65